logo
Search for airport 
image banner adimage banner adimage banner ad
image banner ad

LOMS - Spittal/Drau Kh

Located in District Spittal An Der Drau, Austria

ICAO - , IATA -

Data provided by Airmate  

General information

Coordinates: N46°48'8" E13°29'25"
Elevation is 1876 feet MSL.
 
View others Airports in Salzburg

Operational data

Special qualification required
Current time UTC:
Current local time:
Weather at : LOWK - Klagenfurt ( 67 km )
METAR: LOWK 130620Z AUTO 31003KT 9999 NCD 10/07 Q1031 NOSIG
TAF: TAF LOWK 130515Z 1306/1406 VRB04KT CAVOK TX27/1315Z TN10/1404Z PROB30 TEMPO 1404/1406 3000 MIFG BR
View NOTAMs / SUP AIP / TFR affecting this airport [VIEW]
Communications frequencies: [VIEW]

Runways:

Airport contact information

Address: District Spittal An Der Drau Austria

Satellite view of LOMS